createdAt,value
2017-12-08T00:00:17.785Z,99936.58
2017-12-08T00:02:45.287Z,99930.28
2017-12-08T00:05:12.796Z,99922.95
2017-12-08T00:07:40.328Z,99928.06
2017-12-08T00:10:07.827Z,99928.73
2017-12-08T00:12:35.386Z,99923.09
2017-12-08T00:15:02.897Z,99931.89
2017-12-08T00:17:30.412Z,99931.00
2017-12-08T00:19:57.949Z,99923.38
2017-12-08T00:22:25.495Z,99924.56
2017-12-08T00:24:53.038Z,99925.23
2017-12-08T00:27:20.562Z,99921.95
2017-12-08T00:29:48.120Z,99924.16
2017-12-08T00:32:15.630Z,99918.80
2017-12-08T00:34:43.135Z,99918.28
2017-12-08T00:37:10.692Z,99925.22
2017-12-08T00:39:38.213Z,99918.67
2017-12-08T00:42:05.721Z,99923.78
2017-12-08T00:44:33.282Z,99923.00
2017-12-08T00:47:00.788Z,99927.19
2017-12-08T00:49:28.305Z,99918.80
2017-12-08T00:51:55.857Z,99915.13
2017-12-08T00:54:23.369Z,99913.03
2017-12-08T00:56:50.890Z,99916.96
2017-12-08T00:59:18.449Z,99914.19
2017-12-08T01:01:45.964Z,99918.38
2017-12-08T01:04:13.476Z,99923.64
2017-12-08T01:06:42.092Z,99929.55
2017-12-08T01:09:09.597Z,99931.87
2017-12-08T01:11:37.128Z,99929.92
2017-12-08T01:14:04.640Z,99924.13
2017-12-08T01:16:32.192Z,99929.49
2017-12-08T01:18:59.695Z,99929.61
2017-12-08T01:21:27.201Z,99922.14
2017-12-08T01:23:54.766Z,99928.59
2017-12-08T01:26:22.277Z,99932.51
2017-12-08T01:28:49.789Z,99932.36
2017-12-08T01:31:17.345Z,99936.67
2017-12-08T01:33:44.853Z,99933.80
2017-12-08T01:36:12.361Z,99934.81
2017-12-08T01:38:39.920Z,99938.34
2017-12-08T01:41:07.419Z,99945.57
2017-12-08T01:43:34.953Z,99949.27
2017-12-08T01:46:02.535Z,99944.66
2017-12-08T01:48:30.049Z,99947.30
2017-12-08T01:50:57.560Z,99951.98
2017-12-08T01:53:25.116Z,99946.92
2017-12-08T01:55:52.620Z,99941.01
2017-12-08T01:58:20.133Z,99946.17
2017-12-08T02:00:47.666Z,99946.17
2017-12-08T02:03:15.224Z,99939.36
2017-12-08T02:05:42.724Z,99949.58
2017-12-08T02:08:10.227Z,99954.94
2017-12-08T02:10:37.792Z,99948.75
2017-12-08T02:13:05.312Z,99946.69
2017-12-08T02:15:32.829Z,99946.94
2017-12-08T02:18:00.390Z,99950.50
2017-12-08T02:20:27.895Z,99946.03
2017-12-08T02:22:55.414Z,99933.97
2017-12-08T02:25:23.009Z,99931.64
2017-12-08T02:27:50.517Z,99941.36
2017-12-08T02:30:18.080Z,99944.77
2017-12-08T02:32:45.656Z,99946.23
2017-12-08T02:35:13.194Z,99953.42
2017-12-08T02:37:40.713Z,99950.81
2017-12-08T02:40:08.244Z,99949.37
2017-12-08T02:42:35.743Z,99949.35
2017-12-08T02:45:03.289Z,99948.83
2017-12-08T02:47:30.794Z,99945.03
2017-12-08T02:49:58.323Z,99939.40
2017-12-08T02:52:25.890Z,99936.12
2017-12-08T02:54:53.422Z,99945.55
2017-12-08T02:57:20.937Z,99950.42
2017-12-08T02:59:48.469Z,99958.02
2017-12-08T03:02:16.028Z,99949.23
2017-12-08T03:04:43.538Z,99949.23
2017-12-08T03:07:11.047Z,99954.48
2017-12-08T03:09:38.604Z,99953.16
2017-12-08T03:12:06.116Z,99953.41
2017-12-08T03:14:33.623Z,99951.16
2017-12-08T03:17:01.197Z,99939.13
2017-12-08T03:19:28.759Z,99936.20
2017-12-08T03:21:56.270Z,99943.97
2017-12-08T03:24:23.840Z,99952.99
2017-12-08T03:26:51.405Z,99961.38
2017-12-08T03:29:18.915Z,99965.02
2017-12-08T03:31:46.417Z,99961.35
2017-12-08T03:34:13.968Z,99968.92
2017-12-08T03:36:41.471Z,99961.48
2017-12-08T03:39:08.977Z,99957.80
2017-12-08T03:41:36.540Z,99951.53
2017-12-08T03:44:04.056Z,99944.26
2017-12-08T03:46:31.553Z,99935.80
2017-12-08T03:48:59.147Z,99938.98
2017-12-08T03:51:26.670Z,99938.18
2017-12-08T03:53:54.186Z,99938.13
2017-12-08T03:56:21.764Z,99938.73
2017-12-08T03:58:49.288Z,99932.43
2017-12-08T04:01:16.795Z,99936.80
2017-12-08T04:03:44.361Z,99939.24
2017-12-08T04:06:11.877Z,99940.86
2017-12-08T04:08:39.384Z,99934.59
2017-12-08T04:11:06.954Z,99940.09
2017-12-08T04:13:34.480Z,99931.78
2017-12-08T04:16:01.983Z,99926.30
2017-12-08T04:18:29.570Z,99928.64
2017-12-08T04:20:57.078Z,99931.30
2017-12-08T04:23:24.592Z,99934.11
2017-12-08T04:25:52.123Z,99924.12
2017-12-08T04:28:19.661Z,99917.79
2017-12-08T04:30:47.225Z,99918.75
2017-12-08T04:33:14.741Z,99925.11
2017-12-08T04:35:42.265Z,99923.41
2017-12-08T04:38:09.825Z,99917.10
2017-12-08T04:40:37.349Z,99913.39
2017-12-08T04:43:04.861Z,99924.93
2017-12-08T04:45:32.392Z,99930.19
2017-12-08T04:47:59.904Z,99922.91
2017-12-08T04:50:27.452Z,99921.98
2017-12-08T04:52:54.972Z,99927.67
2017-12-08T04:55:22.504Z,99923.20
2017-12-08T04:57:50.077Z,99925.84
2017-12-08T05:00:17.600Z,99927.97
2017-12-08T05:02:45.102Z,99929.28
2017-12-08T05:05:12.657Z,99928.73
2017-12-08T05:07:40.212Z,99935.35
2017-12-08T05:10:07.729Z,99932.52
2017-12-08T05:12:37.374Z,99927.50
2017-12-08T05:15:04.980Z,99932.70
2017-12-08T05:17:32.484Z,99935.27
2017-12-08T05:19:59.991Z,99940.77
2017-12-08T05:22:30.358Z,99945.28
2017-12-08T05:24:57.970Z,99932.33
2017-12-08T05:27:25.489Z,99935.18
2017-12-08T05:29:53.131Z,99937.08
2017-12-08T05:32:20.697Z,99936.03
2017-12-08T05:34:48.214Z,99932.95
2017-12-08T05:37:15.740Z,99928.38
2017-12-08T05:39:43.287Z,99932.59
2017-12-08T05:42:10.798Z,99934.98
2017-12-08T05:44:38.303Z,99935.27
2017-12-08T05:47:05.844Z,99939.30
2017-12-08T05:49:33.393Z,99936.72
2017-12-08T05:52:00.942Z,99931.45
2017-12-08T05:54:28.458Z,99931.93
2017-12-08T05:56:56.031Z,99927.84
2017-12-08T05:59:23.536Z,99929.24
2017-12-08T06:01:51.089Z,99933.69
2017-12-08T06:04:18.656Z,99925.41
2017-12-08T06:06:46.167Z,99922.63
2017-12-08T06:09:13.673Z,99921.01
2017-12-08T06:11:41.216Z,99922.42
2017-12-08T06:14:08.861Z,99917.36
2017-12-08T06:16:36.368Z,99913.01
2017-12-08T06:19:03.904Z,99914.83
2017-12-08T06:21:31.468Z,99911.86
2017-12-08T06:23:58.987Z,99916.87
2017-12-08T06:26:26.496Z,99926.30
2017-12-08T06:28:54.057Z,99922.72
2017-12-08T06:31:21.575Z,99921.97
2017-12-08T06:33:49.079Z,99920.06
2017-12-08T06:36:16.648Z,99923.76
2017-12-08T06:38:44.160Z,99916.18
2017-12-08T06:41:11.672Z,99916.97
2017-12-08T06:43:39.232Z,99911.34
2017-12-08T06:46:06.747Z,99916.31
2017-12-08T06:48:34.261Z,99916.92
2017-12-08T06:51:01.830Z,99918.54
2017-12-08T06:53:29.331Z,99917.84
2017-12-08T06:55:56.845Z,99922.23
2017-12-08T06:58:24.403Z,99929.52
2017-12-08T07:00:51.909Z,99929.38
2017-12-08T07:03:19.427Z,99934.20
2017-12-08T07:05:46.972Z,99930.23
2017-12-08T07:08:14.472Z,99933.63
2017-12-08T07:10:42.009Z,99932.63
2017-12-08T07:13:09.573Z,99928.22
2017-12-08T07:15:37.150Z,99929.23
2017-12-08T07:18:04.670Z,99943.70
2017-12-08T07:20:32.174Z,99934.33
2017-12-08T07:22:59.757Z,99943.13
2017-12-08T07:25:27.285Z,99947.70
2017-12-08T07:27:54.789Z,99945.48
2017-12-08T07:30:22.353Z,99951.70
2017-12-08T07:32:49.874Z,99950.74
2017-12-08T07:35:17.380Z,99957.01
2017-12-08T07:37:44.947Z,99952.14
2017-12-08T07:40:12.588Z,99945.88
2017-12-08T07:42:40.121Z,99945.73
2017-12-08T07:45:07.700Z,99944.08
2017-12-08T07:47:35.223Z,99949.10
2017-12-08T07:50:02.741Z,99955.48
2017-12-08T07:52:30.297Z,99953.81
2017-12-08T07:54:57.813Z,99958.88
2017-12-08T07:57:25.336Z,99962.67
2017-12-08T07:59:52.900Z,99960.37
2017-12-08T08:02:20.412Z,99959.14
2017-12-08T08:04:47.908Z,99973.00
2017-12-08T08:07:15.448Z,99963.08
2017-12-08T08:09:42.995Z,99969.98
2017-12-08T08:12:10.517Z,99981.22
2017-12-08T08:14:38.029Z,99984.05
2017-12-08T08:17:05.577Z,99980.89
2017-12-08T08:19:33.142Z,99971.39
2017-12-08T08:22:00.680Z,99972.91
2017-12-08T08:24:28.204Z,99970.30
2017-12-08T08:26:55.782Z,99973.38
2017-12-08T08:29:23.303Z,99975.18
2017-12-08T08:31:50.857Z,99969.47
2017-12-08T08:34:18.385Z,99976.40
2017-12-08T08:36:45.891Z,99971.69
2017-12-08T08:39:13.454Z,99984.41
2017-12-08T08:41:41.053Z,99985.06
2017-12-08T08:44:08.593Z,99979.45
2017-12-08T08:46:36.110Z,99986.98
2017-12-08T08:49:03.654Z,99984.86
2017-12-08T08:51:31.204Z,99981.26
2017-12-08T08:53:58.847Z,99976.87
2017-12-08T08:56:26.381Z,99977.90
2017-12-08T08:58:53.963Z,99987.36
2017-12-08T09:01:21.482Z,99987.39
2017-12-08T09:03:48.996Z,99990.19
2017-12-08T09:06:16.557Z,99987.42
2017-12-08T09:08:44.064Z,99989.90
2017-12-08T09:11:11.625Z,99987.55
2017-12-08T09:13:39.144Z,99991.88
2017-12-08T09:16:06.661Z,99985.59
2017-12-08T09:18:34.199Z,99989.11
2017-12-08T09:21:01.705Z,99986.58
2017-12-08T09:23:29.270Z,99982.84
2017-12-08T09:25:56.806Z,99978.09
2017-12-08T09:28:24.319Z,99979.05
2017-12-08T09:30:51.857Z,99976.69
2017-12-08T09:33:19.376Z,99974.39
2017-12-08T09:35:46.941Z,99980.70
2017-12-08T09:38:14.451Z,99982.14
2017-12-08T09:40:41.957Z,99968.22
2017-12-08T09:43:09.511Z,99974.03
2017-12-08T09:45:37.022Z,99976.69
2017-12-08T09:48:04.525Z,99971.75
2017-12-08T09:50:32.108Z,99977.40
2017-12-08T09:52:59.642Z,99980.67
2017-12-08T09:55:27.835Z,99985.11
2017-12-08T09:57:55.451Z,99993.74
2017-12-08T10:00:22.956Z,99985.55
2017-12-08T10:02:50.463Z,99994.83
2017-12-08T10:05:18.021Z,100004.98
2017-12-08T10:07:45.537Z,100005.13
2017-12-08T10:10:13.043Z,100007.80
2017-12-08T10:12:40.632Z,99999.88
2017-12-08T10:15:08.131Z,100005.41
2017-12-08T10:17:35.632Z,100002.91
2017-12-08T10:20:03.164Z,100006.11
2017-12-08T10:22:30.711Z,100017.60
2017-12-08T10:24:58.228Z,100022.17
2017-12-08T10:27:25.766Z,100030.72
2017-12-08T10:29:53.318Z,100024.13
2017-12-08T10:32:20.845Z,100021.23
2017-12-08T10:34:48.389Z,100014.70
2017-12-08T10:37:15.917Z,100016.20
2017-12-08T10:39:43.453Z,100015.20
2017-12-08T10:42:10.999Z,100011.39
2017-12-08T10:44:38.540Z,100002.20
2017-12-08T10:47:06.046Z,100013.28
2017-12-08T10:49:33.614Z,100030.41
2017-12-08T10:52:01.150Z,100026.19
2017-12-08T10:54:28.689Z,100023.06
2017-12-08T10:56:56.265Z,100016.18
2017-12-08T10:59:23.825Z,100009.55
2017-12-08T11:01:51.363Z,100009.19
2017-12-08T11:04:18.954Z,100016.03
2017-12-08T11:06:46.482Z,100030.87
2017-12-08T11:09:13.987Z,100024.78
2017-12-08T11:11:41.556Z,100015.68
2017-12-08T11:14:09.096Z,100027.75
2017-12-08T11:16:36.628Z,100020.81
2017-12-08T11:19:04.192Z,100028.18
2017-12-08T11:21:31.718Z,100040.08
2017-12-08T11:23:59.293Z,100042.64
2017-12-08T11:26:26.803Z,100038.23
2017-12-08T11:28:54.361Z,100043.67
2017-12-08T11:31:21.905Z,100038.37
2017-12-08T11:33:49.531Z,100025.76
2017-12-08T11:36:17.049Z,100017.12
2017-12-08T11:38:44.555Z,100024.20
2017-12-08T11:41:12.103Z,100027.73
2017-12-08T11:43:39.622Z,100022.20
2017-12-08T11:46:07.141Z,100028.56
2017-12-08T11:48:34.705Z,100038.82
2017-12-08T11:51:02.220Z,100039.50
2017-12-08T11:53:29.737Z,100039.17
2017-12-08T11:55:57.285Z,100033.80
2017-12-08T11:58:24.851Z,100038.72
2017-12-08T12:00:52.385Z,100034.02
2017-12-08T12:03:19.892Z,100031.84
2017-12-08T12:05:47.461Z,100034.52
2017-12-08T12:08:14.978Z,100040.63
2017-12-08T12:10:42.484Z,100047.92
2017-12-08T12:13:10.060Z,100045.27
2017-12-08T12:15:37.573Z,100038.06
2017-12-08T12:18:05.080Z,100053.90
2017-12-08T12:20:32.616Z,100054.42
2017-12-08T12:23:00.188Z,100048.45
2017-12-08T12:25:27.699Z,100047.30
2017-12-08T12:27:55.211Z,100048.56
2017-12-08T12:30:22.749Z,100062.05
2017-12-08T12:32:50.289Z,100062.57
2017-12-08T12:35:17.861Z,100073.05
2017-12-08T12:37:45.420Z,100070.42
2017-12-08T12:40:12.938Z,100085.48
2017-12-08T12:42:40.435Z,100097.64
2017-12-08T12:45:07.969Z,100097.89
2017-12-08T12:47:35.533Z,100095.15
2017-12-08T12:50:03.054Z,100101.86
2017-12-08T12:52:30.593Z,100085.95
2017-12-08T12:54:58.162Z,100101.99
2017-12-08T12:57:25.680Z,100102.25
2017-12-08T12:59:53.187Z,100103.86
2017-12-08T13:02:20.744Z,100104.59
2017-12-08T13:04:48.258Z,100113.11
2017-12-08T13:07:15.764Z,100097.27
2017-12-08T13:09:43.320Z,100108.77
2017-12-08T13:12:10.840Z,100105.16
2017-12-08T13:14:38.369Z,100109.15
2017-12-08T13:17:05.938Z,100106.82
2017-12-08T13:19:33.465Z,100108.06
2017-12-08T13:22:00.975Z,100102.77
2017-12-08T13:24:28.531Z,100101.73
2017-12-08T13:26:56.057Z,100099.17
2017-12-08T13:29:23.569Z,100104.89
2017-12-08T13:31:51.140Z,100106.48
2017-12-08T13:34:18.640Z,100100.88
2017-12-08T13:36:46.152Z,100094.92
2017-12-08T13:39:13.693Z,100096.70
2017-12-08T13:41:41.209Z,100093.47
2017-12-08T13:44:08.782Z,100094.70
2017-12-08T13:46:36.322Z,100090.25
2017-12-08T13:49:03.831Z,100086.86
2017-12-08T13:51:31.419Z,100094.94
2017-12-08T13:54:10.700Z,100102.48
2017-12-08T13:56:52.177Z,100105.89
2017-12-08T13:59:19.688Z,100101.30
2017-12-08T14:01:47.202Z,100097.77
2017-12-08T14:04:14.746Z,100115.06
2017-12-08T14:06:42.298Z,100117.49
2017-12-08T14:09:09.869Z,100128.22
2017-12-08T14:11:37.394Z,100130.39
2017-12-08T14:14:05.025Z,100120.99
2017-12-08T14:16:32.597Z,100118.27
2017-12-08T14:19:00.109Z,100129.03
2017-12-08T14:21:27.621Z,100111.14
2017-12-08T14:23:55.183Z,100112.20
2017-12-08T14:26:22.687Z,100118.45
2017-12-08T14:28:50.201Z,100123.19
2017-12-08T14:31:17.764Z,100128.02
2017-12-08T14:33:45.271Z,100133.13
2017-12-08T14:36:12.788Z,100119.70
2017-12-08T14:38:40.357Z,100122.30
2017-12-08T14:41:07.881Z,100120.20
2017-12-08T14:43:35.389Z,100126.09
2017-12-08T14:46:02.921Z,100135.31
2017-12-08T14:48:30.434Z,100120.22
2017-12-08T14:50:58.005Z,100126.48
2017-12-08T14:53:26.484Z,100132.42
2017-12-08T14:55:54.006Z,100121.58
2017-12-08T14:58:21.581Z,100116.93
2017-12-08T15:00:49.088Z,100111.80
2017-12-08T15:03:16.593Z,100122.14
2017-12-08T15:05:44.149Z,100132.23
2017-12-08T15:08:11.693Z,100128.04
2017-12-08T15:10:39.225Z,100137.70
2017-12-08T15:13:06.796Z,100133.77
2017-12-08T15:15:34.347Z,100139.63
2017-12-08T15:18:01.889Z,100142.69
2017-12-08T15:20:29.471Z,100141.54
2017-12-08T15:22:56.979Z,100139.88
2017-12-08T15:25:24.517Z,100136.31
2017-12-08T15:27:52.108Z,100141.67
2017-12-08T15:30:19.680Z,100148.38
2017-12-08T15:32:47.200Z,100160.72
2017-12-08T15:35:14.719Z,100161.42
2017-12-08T15:37:42.292Z,100161.66
2017-12-08T15:40:09.812Z,100155.97
2017-12-08T15:42:37.329Z,100145.45
2017-12-08T15:45:04.904Z,100151.41
2017-12-08T15:47:32.411Z,100133.42
2017-12-08T15:49:59.976Z,100131.56
2017-12-08T15:52:27.524Z,100126.59
2017-12-08T15:54:55.126Z,100124.38
2017-12-08T15:57:22.648Z,100124.11
2017-12-08T15:59:50.161Z,100125.11
2017-12-08T16:02:17.729Z,100122.30
2017-12-08T16:04:45.239Z,100129.73
2017-12-08T16:07:12.773Z,100131.70
2017-12-08T16:09:40.345Z,100130.28
2017-12-08T16:12:07.856Z,100132.28
2017-12-08T16:14:35.433Z,100123.52
2017-12-08T16:17:02.944Z,100124.25
2017-12-08T16:19:30.489Z,100120.48
2017-12-08T16:21:58.059Z,100118.00
2017-12-08T16:24:25.577Z,100123.61
2017-12-08T16:26:53.094Z,100117.91
2017-12-08T16:29:20.676Z,100116.72
2017-12-08T16:31:48.185Z,100116.70
2017-12-08T16:34:15.696Z,100118.06
2017-12-08T16:36:43.261Z,100112.12
2017-12-08T16:39:11.058Z,100120.20
2017-12-08T16:41:38.594Z,100119.41
2017-12-08T16:44:06.162Z,100115.28
2017-12-08T16:46:33.672Z,100127.42
2017-12-08T16:49:01.194Z,100125.69
2017-12-08T16:51:28.789Z,100118.81
2017-12-08T16:53:56.308Z,100121.66
2017-12-08T16:56:23.815Z,100114.67
2017-12-08T16:58:51.349Z,100114.92
2017-12-08T17:01:18.920Z,100108.45
2017-12-08T17:03:46.428Z,100119.14
2017-12-08T17:06:13.945Z,100110.52
2017-12-08T17:08:41.519Z,100115.27
2017-12-08T17:11:09.028Z,100110.34
2017-12-08T17:13:36.549Z,100122.62
2017-12-08T17:16:04.119Z,100115.78
2017-12-08T17:18:31.640Z,100123.02
2017-12-08T17:20:59.151Z,100118.48
2017-12-08T17:23:26.719Z,100106.96
2017-12-08T17:25:54.308Z,100098.36
2017-12-08T17:28:21.881Z,100092.40
2017-12-08T17:30:49.436Z,100087.94
2017-12-08T17:33:16.966Z,100078.31
2017-12-08T17:35:44.488Z,100077.34
2017-12-08T17:38:12.061Z,100076.14
2017-12-08T17:40:39.571Z,100075.59
2017-12-08T17:43:07.089Z,100077.25
2017-12-08T17:45:34.620Z,100077.14
2017-12-08T17:48:02.146Z,100082.95
2017-12-08T17:50:29.713Z,100091.64
2017-12-08T17:52:57.215Z,100086.89
2017-12-08T17:55:24.730Z,100074.06
2017-12-08T17:57:52.269Z,100076.53
2017-12-08T18:00:19.803Z,100070.72
2017-12-08T18:02:47.347Z,100065.44
2017-12-08T18:05:14.887Z,100064.36
2017-12-08T18:07:42.404Z,100057.58
2017-12-08T18:10:09.971Z,100059.14
2017-12-08T18:12:37.492Z,100050.95
2017-12-08T18:15:05.000Z,100047.20
2017-12-08T18:17:32.605Z,100046.00
2017-12-08T18:20:00.148Z,100042.42
2017-12-08T18:22:27.691Z,100050.24
2017-12-08T18:24:55.262Z,100058.48
2017-12-08T18:27:22.796Z,100058.16
2017-12-08T18:29:50.320Z,100056.45
2017-12-08T18:32:17.901Z,100068.44
2017-12-08T18:34:45.429Z,100073.44
2017-12-08T18:37:12.953Z,100080.05
2017-12-08T18:39:40.502Z,100081.00
2017-12-08T18:42:08.024Z,100081.30
2017-12-08T18:44:35.600Z,100075.69
2017-12-08T18:47:03.176Z,100077.95
2017-12-08T18:49:30.713Z,100071.56
2017-12-08T18:51:58.285Z,100063.84
2017-12-08T18:54:25.805Z,100062.83
2017-12-08T18:56:53.338Z,100076.27
2017-12-08T18:59:21.007Z,100077.67
2017-12-08T19:01:48.617Z,100082.79
2017-12-08T19:04:16.133Z,100077.30
2017-12-08T19:06:43.696Z,100075.27
2017-12-08T19:09:11.252Z,100093.31
2017-12-08T19:11:38.895Z,100093.83
2017-12-08T19:14:06.513Z,100098.69
2017-12-08T19:16:34.125Z,100104.14
2017-12-08T19:19:01.839Z,100112.73
2017-12-08T19:21:29.399Z,100101.59
2017-12-08T19:23:56.982Z,100125.13
2017-12-08T19:26:24.501Z,100123.61
2017-12-08T19:28:52.056Z,100128.31
2017-12-08T19:31:19.623Z,100130.44
2017-12-08T19:33:47.226Z,100142.77
2017-12-08T19:36:14.752Z,100147.41
2017-12-08T19:38:42.420Z,100138.34
2017-12-08T19:41:09.937Z,100151.36
2017-12-08T19:43:37.456Z,100172.41
2017-12-08T19:46:05.038Z,100184.53
2017-12-08T19:48:32.607Z,100181.62
2017-12-08T19:51:00.144Z,100181.47
2017-12-08T19:53:27.721Z,100179.50
2017-12-08T19:55:55.261Z,100175.98
2017-12-08T19:58:22.808Z,100174.50
2017-12-08T20:00:50.404Z,100178.66
2017-12-08T20:03:17.953Z,100174.77
2017-12-08T20:05:45.489Z,100176.14
2017-12-08T20:08:13.078Z,100186.42
2017-12-08T20:10:40.609Z,100187.58
2017-12-08T20:13:08.238Z,100192.45
2017-12-08T20:15:35.911Z,100195.55
2017-12-08T20:18:05.317Z,100192.64
2017-12-08T20:20:32.963Z,100186.66
2017-12-08T20:23:00.570Z,100191.33
2017-12-08T20:25:28.098Z,100201.94
2017-12-08T20:27:55.621Z,100191.94
2017-12-08T20:30:23.180Z,100190.59
2017-12-08T20:32:51.493Z,100183.06
2017-12-08T20:35:19.021Z,100193.92
2017-12-08T20:37:46.566Z,100195.69
2017-12-08T20:40:14.139Z,100198.40
2017-12-08T20:42:43.312Z,100205.27
2017-12-08T20:45:10.835Z,100211.44
2017-12-08T20:47:38.388Z,100209.09
2017-12-08T20:50:05.912Z,100210.14
2017-12-08T20:52:33.494Z,100208.73
2017-12-08T20:55:01.017Z,100211.67
2017-12-08T20:57:28.609Z,100211.83
2017-12-08T20:59:56.178Z,100223.44
2017-12-08T21:02:23.768Z,100213.86
2017-12-08T21:04:51.284Z,100233.64
2017-12-08T21:07:18.813Z,100227.02
2017-12-08T21:09:46.389Z,100237.19
2017-12-08T21:12:13.932Z,100240.16
2017-12-08T21:14:41.449Z,100240.83
2017-12-08T21:17:09.010Z,100240.59
2017-12-08T21:19:36.552Z,100238.56
2017-12-08T21:22:04.092Z,100248.66
2017-12-08T21:24:31.633Z,100235.67
2017-12-08T21:26:59.189Z,100240.09
2017-12-08T21:29:26.760Z,100225.50
2017-12-08T21:31:54.280Z,100232.72
2017-12-08T21:34:21.791Z,100238.52
2017-12-08T21:36:49.367Z,100238.14
2017-12-08T21:39:16.892Z,100234.54
2017-12-08T21:41:45.305Z,100244.80
2017-12-08T21:44:12.860Z,100241.45
2017-12-08T21:46:40.414Z,100251.38
2017-12-08T21:49:07.941Z,100249.78
2017-12-08T21:51:35.492Z,100262.92
2017-12-08T21:54:03.004Z,100257.59
2017-12-08T21:56:30.578Z,100260.80
2017-12-08T21:58:58.098Z,100264.09
2017-12-08T22:01:25.656Z,100260.68
2017-12-08T22:03:53.261Z,100262.33
2017-12-08T22:06:20.801Z,100266.49
2017-12-08T22:08:48.340Z,100259.51
2017-12-08T22:11:15.884Z,100267.79
2017-12-08T22:13:43.407Z,100265.70
2017-12-08T22:16:10.968Z,100273.96
2017-12-08T22:18:38.505Z,100271.58
2017-12-08T22:21:06.083Z,100274.87
2017-12-08T22:23:33.600Z,100271.94
2017-12-08T22:26:01.116Z,100275.28
2017-12-08T22:28:28.683Z,100277.42
2017-12-08T22:30:56.216Z,100267.84
2017-12-08T22:33:23.745Z,100271.37
2017-12-08T22:35:51.308Z,100269.17
2017-12-08T22:38:18.884Z,100274.06
2017-12-08T22:40:46.407Z,100272.02
2017-12-08T22:43:13.973Z,100269.30
2017-12-08T22:45:41.497Z,100272.50
2017-12-08T22:48:09.064Z,100274.54
2017-12-08T22:50:36.582Z,100266.55
2017-12-08T22:53:04.096Z,100273.91
2017-12-08T22:55:31.637Z,100269.20
2017-12-08T22:57:59.236Z,100277.88
2017-12-08T23:00:28.580Z,100280.33
2017-12-08T23:02:56.108Z,100275.06
2017-12-08T23:05:23.656Z,100281.87
2017-12-08T23:07:51.209Z,100287.19
2017-12-08T23:10:18.804Z,100283.62
2017-12-08T23:12:46.333Z,100281.70
2017-12-08T23:15:13.889Z,100281.23
2017-12-08T23:17:41.470Z,100283.55
2017-12-08T23:20:08.996Z,100281.63
2017-12-08T23:22:36.516Z,100287.86
2017-12-08T23:25:04.169Z,100279.99
2017-12-08T23:27:31.754Z,100283.95
2017-12-08T23:29:59.274Z,100285.48
2017-12-08T23:32:26.784Z,100285.31
2017-12-08T23:34:54.332Z,100282.08
2017-12-08T23:37:21.851Z,100281.04
2017-12-08T23:39:49.610Z,100273.45
2017-12-08T23:42:17.137Z,100269.95
2017-12-08T23:44:44.657Z,100270.47
2017-12-08T23:47:12.240Z,100270.47
2017-12-08T23:49:39.756Z,100265.81
2017-12-08T23:52:07.272Z,100267.11
2017-12-08T23:54:34.835Z,100261.26
2017-12-08T23:57:02.380Z,100260.64
2017-12-08T23:59:29.912Z,100258.75
